createdAt,value
2022-12-31T00:00:52.278Z,30.67
2022-12-31T00:03:23.856Z,30.95
2022-12-31T00:05:59.606Z,33.03
2022-12-31T00:08:30.580Z,30.77
2022-12-31T00:11:07.950Z,30.75
2022-12-31T00:13:41.530Z,31.97
2022-12-31T00:16:30.826Z,32.83
2022-12-31T00:19:01.308Z,34.28
2022-12-31T00:21:33.337Z,31.80
2022-12-31T00:24:17.710Z,34.03
2022-12-31T00:26:55.205Z,32.03
2022-12-31T00:29:27.543Z,33.25
2022-12-31T00:32:07.968Z,35.42
2022-12-31T00:34:46.619Z,32.40
2022-12-31T00:37:13.796Z,35.13
2022-12-31T00:39:46.582Z,34.50
2022-12-31T00:42:16.535Z,34.08
2022-12-31T00:44:43.767Z,33.17
2022-12-31T00:47:13.421Z,35.83
2022-12-31T00:49:47.895Z,34.05
2022-12-31T00:52:45.350Z,36.23
2022-12-31T00:55:17.780Z,34.78
2022-12-31T00:57:53.185Z,33.97
2022-12-31T01:00:37.533Z,35.05
2022-12-31T01:03:12.173Z,36.17
2022-12-31T01:05:47.040Z,34.30
2022-12-31T01:08:25.243Z,34.75
2022-12-31T01:11:14.069Z,30.80
2022-12-31T01:13:45.694Z,35.55
2022-12-31T01:16:14.712Z,35.75
2022-12-31T01:18:42.143Z,34.43
2022-12-31T01:21:13.272Z,33.63
2022-12-31T01:23:42.823Z,37.17
2022-12-31T01:26:23.447Z,34.13
2022-12-31T01:28:54.528Z,34.43
2022-12-31T01:31:30.255Z,35.17
2022-12-31T01:34:08.366Z,34.47
2022-12-31T01:36:47.468Z,37.55
2022-12-31T01:39:26.537Z,35.42
2022-12-31T01:42:13.978Z,34.70
2022-12-31T01:44:52.989Z,37.50
2022-12-31T01:47:39.403Z,38.47
2022-12-31T01:50:33.080Z,32.95
2022-12-31T01:53:20.993Z,34.45
2022-12-31T01:56:03.368Z,32.97
2022-12-31T01:58:45.802Z,36.57
2022-12-31T02:01:28.809Z,34.05
2022-12-31T02:04:01.258Z,31.63
2022-12-31T02:06:49.480Z,32.33
2022-12-31T02:09:25.960Z,29.98
2022-12-31T02:11:55.288Z,34.87
2022-12-31T02:14:43.743Z,30.42
2022-12-31T02:17:16.637Z,28.38
2022-12-31T02:20:13.659Z,28.92
2022-12-31T02:23:21.034Z,33.27
2022-12-31T02:26:24.875Z,34.03
2022-12-31T02:29:31.902Z,31.25
2022-12-31T02:32:06.848Z,29.33
2022-12-31T02:34:38.157Z,31.08
2022-12-31T02:37:27.215Z,31.33
2022-12-31T02:40:04.698Z,32.73
2022-12-31T02:42:45.593Z,26.25
2022-12-31T02:45:25.688Z,31.35
2022-12-31T02:48:28.817Z,29.30
2022-12-31T02:51:01.148Z,29.25
2022-12-31T02:53:43.302Z,27.77
2022-12-31T02:56:27.555Z,27.27
2022-12-31T02:59:30.091Z,25.83
2022-12-31T03:02:17.573Z,29.20
2022-12-31T03:05:11.258Z,27.50
2022-12-31T03:07:48.225Z,28.63
2022-12-31T03:10:15.530Z,26.15
2022-12-31T03:12:47.774Z,29.23
2022-12-31T03:15:23.444Z,36.55
2022-12-31T03:18:16.474Z,28.92
2022-12-31T03:21:11.400Z,29.93
2022-12-31T03:24:04.569Z,30.08
2022-12-31T03:26:35.827Z,29.50
2022-12-31T03:29:05.784Z,30.92
2022-12-31T03:31:35.623Z,29.38
2022-12-31T03:34:12.707Z,27.63
2022-12-31T03:36:47.249Z,28.73
2022-12-31T03:39:19.081Z,29.48
2022-12-31T03:41:53.363Z,27.20
2022-12-31T03:44:27.949Z,27.63
2022-12-31T03:46:55.115Z,31.97
2022-12-31T03:49:30.044Z,26.67
2022-12-31T03:52:04.771Z,27.83
2022-12-31T03:54:43.613Z,29.20
2022-12-31T03:57:19.019Z,29.48
2022-12-31T03:59:46.156Z,30.10
2022-12-31T04:02:15.273Z,28.23
2022-12-31T04:04:51.346Z,29.75
2022-12-31T04:07:21.624Z,29.23
2022-12-31T04:09:49.636Z,26.80
2022-12-31T04:12:25.812Z,28.63
2022-12-31T04:14:55.337Z,33.22
2022-12-31T04:17:22.493Z,39.30
2022-12-31T04:20:01.277Z,38.83
2022-12-31T04:22:36.260Z,40.72
2022-12-31T04:25:08.687Z,43.57
2022-12-31T04:27:46.154Z,40.83
2022-12-31T04:30:33.278Z,39.10
2022-12-31T04:33:15.827Z,42.72
2022-12-31T04:35:51.114Z,37.17
2022-12-31T04:38:33.445Z,39.20
2022-12-31T04:41:22.516Z,36.40
2022-12-31T04:43:51.921Z,38.80
2022-12-31T04:46:37.061Z,38.10
2022-12-31T04:49:06.893Z,36.33
2022-12-31T04:51:39.310Z,35.60
2022-12-31T04:54:23.166Z,37.53
2022-12-31T04:57:05.621Z,38.63
2022-12-31T04:59:41.233Z,32.25
2022-12-31T05:02:11.000Z,33.13
2022-12-31T05:04:44.639Z,34.43
2022-12-31T05:07:15.063Z,32.83
2022-12-31T05:10:05.642Z,38.03
2022-12-31T05:12:36.547Z,31.63
2022-12-31T05:15:08.836Z,34.33
2022-12-31T05:17:40.246Z,31.98
2022-12-31T05:20:17.908Z,30.90
2022-12-31T05:22:50.292Z,32.30
2022-12-31T05:25:17.458Z,32.83
2022-12-31T05:27:54.666Z,36.38
2022-12-31T05:30:26.219Z,36.28
2022-12-31T05:32:59.626Z,38.17
2022-12-31T05:35:29.333Z,41.67
2022-12-31T05:38:02.262Z,40.13
2022-12-31T05:40:38.115Z,39.53
2022-12-31T05:43:10.899Z,40.95
2022-12-31T05:45:39.283Z,44.33
2022-12-31T05:48:09.808Z,42.78
2022-12-31T05:50:56.636Z,46.30
2022-12-31T05:53:34.377Z,47.00
2022-12-31T06:00:34.168Z,38.37
2022-12-31T06:03:08.273Z,45.17
2022-12-31T06:05:42.774Z,41.08
2022-12-31T06:08:14.232Z,38.38
2022-12-31T06:10:43.941Z,38.33
2022-12-31T06:13:13.805Z,40.78
2022-12-31T06:15:45.410Z,40.03
2022-12-31T06:18:15.976Z,44.70
2022-12-31T06:20:49.338Z,43.20
2022-12-31T06:23:22.795Z,41.03
2022-12-31T06:25:54.710Z,43.85
2022-12-31T06:28:34.851Z,38.13
2022-12-31T06:31:17.168Z,42.25
2022-12-31T06:33:49.026Z,47.83
2022-12-31T06:36:19.293Z,53.47
2022-12-31T06:39:10.122Z,52.33
2022-12-31T06:41:37.942Z,52.47
2022-12-31T06:44:16.579Z,51.08
2022-12-31T06:46:56.884Z,54.65
2022-12-31T06:49:33.993Z,44.03
2022-12-31T06:52:06.379Z,40.20
2022-12-31T07:03:21.901Z,33.00
2022-12-31T07:05:59.730Z,30.73
2022-12-31T07:08:31.556Z,33.37
2022-12-31T07:11:11.195Z,26.20
2022-12-31T07:14:09.472Z,29.05
2022-12-31T07:17:22.471Z,26.90
2022-12-31T07:20:11.905Z,26.42
2022-12-31T07:22:41.576Z,28.60
2022-12-31T07:25:31.376Z,26.15
2022-12-31T07:28:33.829Z,28.10
2022-12-31T07:31:36.100Z,21.63
2022-12-31T07:34:27.008Z,24.50
2022-12-31T07:37:08.437Z,23.83
2022-12-31T07:40:02.752Z,25.05
2022-12-31T07:42:54.103Z,24.77
2022-12-31T07:45:48.573Z,23.83
2022-12-31T07:48:27.107Z,26.02
2022-12-31T07:51:04.780Z,23.70
2022-12-31T07:53:32.210Z,22.75
2022-12-31T07:56:06.997Z,23.88
2022-12-31T07:58:43.468Z,25.83
2022-12-31T08:01:20.597Z,24.27
2022-12-31T08:03:55.784Z,24.40
2022-12-31T08:06:44.199Z,27.55
2022-12-31T08:09:51.131Z,26.15
2022-12-31T08:12:26.718Z,31.13
2022-12-31T08:15:03.148Z,30.00
2022-12-31T08:17:37.378Z,30.10
2022-12-31T08:20:06.818Z,29.40
2022-12-31T08:22:48.948Z,26.23
2022-12-31T08:25:47.236Z,28.48
2022-12-31T08:29:05.836Z,27.15
2022-12-31T08:31:59.411Z,27.73
2022-12-31T08:34:46.988Z,29.27
2022-12-31T08:37:37.949Z,28.40
2022-12-31T08:40:29.490Z,27.52
2022-12-31T08:42:59.334Z,28.13
2022-12-31T08:45:50.893Z,26.30
2022-12-31T08:48:23.868Z,33.10
2022-12-31T08:51:00.083Z,26.77
2022-12-31T08:53:35.164Z,29.90
2022-12-31T08:56:19.330Z,28.55
2022-12-31T08:59:20.754Z,21.67
2022-12-31T09:02:23.015Z,18.23
2022-12-31T09:05:06.997Z,16.60
2022-12-31T09:07:48.139Z,15.57
2022-12-31T09:10:28.109Z,18.77
2022-12-31T09:13:23.708Z,14.90
2022-12-31T09:16:36.741Z,15.38
2022-12-31T09:19:13.322Z,16.90
2022-12-31T09:21:49.242Z,15.85
2022-12-31T09:24:22.789Z,17.75
2022-12-31T09:27:29.058Z,16.13
2022-12-31T09:30:08.819Z,19.45
2022-12-31T09:33:12.412Z,16.27
2022-12-31T09:35:50.732Z,19.05
2022-12-31T09:38:58.244Z,18.30
2022-12-31T09:41:54.915Z,16.70
2022-12-31T09:44:59.911Z,15.77
2022-12-31T09:48:00.761Z,15.15
2022-12-31T09:50:45.506Z,16.52
2022-12-31T09:53:41.706Z,12.45
2022-12-31T09:56:25.917Z,13.90
2022-12-31T09:59:19.623Z,13.15
2022-12-31T10:02:15.698Z,13.38
2022-12-31T10:05:10.761Z,14.48
2022-12-31T10:08:18.747Z,14.55
2022-12-31T10:10:59.553Z,13.00
2022-12-31T10:13:51.756Z,14.30
2022-12-31T10:16:34.132Z,13.80
2022-12-31T10:19:30.158Z,18.25
2022-12-31T10:22:16.996Z,11.45
2022-12-31T10:25:38.340Z,10.63
2022-12-31T10:28:24.264Z,11.57
2022-12-31T10:31:16.479Z,13.75
2022-12-31T10:34:06.701Z,13.45
2022-12-31T10:37:00.327Z,13.15
2022-12-31T10:39:47.695Z,10.40
2022-12-31T10:42:43.068Z,11.90
2022-12-31T10:45:51.854Z,10.05
2022-12-31T10:49:06.735Z,11.05
2022-12-31T10:52:00.840Z,11.65
2022-12-31T10:55:11.589Z,8.53
2022-12-31T10:58:02.007Z,10.75
2022-12-31T11:00:49.261Z,11.32
2022-12-31T11:03:50.616Z,11.70
2022-12-31T11:06:34.893Z,9.38
2022-12-31T11:09:21.178Z,13.33
2022-12-31T11:11:58.280Z,12.23
2022-12-31T11:15:14.504Z,12.38
2022-12-31T11:18:00.481Z,9.68
2022-12-31T11:21:01.305Z,13.48
2022-12-31T11:23:45.317Z,10.77
2022-12-31T11:26:25.264Z,13.20
2022-12-31T11:29:10.687Z,11.05
2022-12-31T11:32:18.222Z,13.00
2022-12-31T11:34:49.811Z,11.63
2022-12-31T11:37:52.619Z,16.93
2022-12-31T11:40:44.722Z,11.63
2022-12-31T11:43:19.991Z,11.10
2022-12-31T11:45:59.209Z,8.63
2022-12-31T11:48:36.687Z,8.63
2022-12-31T11:51:24.684Z,9.73
2022-12-31T11:54:34.343Z,9.40
2022-12-31T11:57:40.383Z,12.35
2022-12-31T12:00:20.543Z,8.60
2022-12-31T12:03:07.491Z,6.45
2022-12-31T12:05:41.836Z,6.77
2022-12-31T12:08:14.770Z,5.30
2022-12-31T12:11:19.012Z,5.10
2022-12-31T12:13:57.521Z,7.20
2022-12-31T12:16:36.366Z,5.43
2022-12-31T12:19:20.966Z,5.10
2022-12-31T12:21:52.798Z,5.15
2022-12-31T12:24:32.650Z,6.45
2022-12-31T12:27:06.317Z,6.85
2022-12-31T12:29:42.401Z,6.00
2022-12-31T12:32:38.791Z,5.37
2022-12-31T12:35:23.070Z,7.97
2022-12-31T12:38:13.930Z,4.85
2022-12-31T12:40:59.681Z,4.90
2022-12-31T12:43:40.385Z,6.30
2022-12-31T12:46:46.063Z,4.97
2022-12-31T12:49:47.008Z,4.95
2022-12-31T12:52:39.011Z,4.97
2022-12-31T12:55:18.408Z,6.47
2022-12-31T12:57:57.434Z,4.15
2022-12-31T13:01:03.611Z,5.47
2022-12-31T13:04:32.319Z,4.82
2022-12-31T13:07:23.008Z,4.97
2022-12-31T13:10:12.737Z,8.60
2022-12-31T13:15:56.246Z,6.03
2022-12-31T13:19:07.328Z,4.93
2022-12-31T13:21:44.097Z,6.95
2022-12-31T13:24:55.033Z,5.80
2022-12-31T13:27:51.981Z,6.90
2022-12-31T13:30:34.935Z,6.40
2022-12-31T13:33:21.865Z,5.53
2022-12-31T13:36:05.718Z,7.03
2022-12-31T13:38:52.068Z,7.28
2022-12-31T13:41:30.003Z,5.53
2022-12-31T13:44:09.426Z,6.00
2022-12-31T13:46:54.572Z,5.47
2022-12-31T13:49:34.081Z,4.78
2022-12-31T13:52:05.123Z,6.65
2022-12-31T13:54:39.680Z,7.05
2022-12-31T13:57:27.208Z,5.50
2022-12-31T14:00:04.532Z,6.82
2022-12-31T14:02:53.953Z,7.63
2022-12-31T14:05:37.174Z,6.55
2022-12-31T14:08:06.536Z,8.50
2022-12-31T14:10:54.801Z,8.07
2022-12-31T14:13:53.071Z,7.60
2022-12-31T14:16:23.107Z,8.63
2022-12-31T14:19:36.509Z,8.20
2022-12-31T14:22:43.971Z,9.60
2022-12-31T14:25:30.476Z,8.97
2022-12-31T14:28:07.346Z,8.88
2022-12-31T14:30:49.534Z,10.68
2022-12-31T14:33:22.739Z,15.82
2022-12-31T14:36:43.364Z,13.75
2022-12-31T14:39:49.744Z,13.00
2022-12-31T14:43:01.863Z,12.57
2022-12-31T14:45:47.815Z,13.18
2022-12-31T14:48:50.600Z,11.38
2022-12-31T14:51:25.235Z,11.70
2022-12-31T14:54:01.702Z,10.33
2022-12-31T14:56:40.938Z,12.77
2022-12-31T14:59:28.997Z,13.30
2022-12-31T15:02:35.046Z,14.38
2022-12-31T15:05:19.092Z,14.88
2022-12-31T15:08:14.522Z,18.23
2022-12-31T15:11:03.792Z,18.27
2022-12-31T15:13:36.637Z,18.17
2022-12-31T15:16:09.961Z,18.55
2022-12-31T15:19:10.510Z,15.85
2022-12-31T15:21:53.449Z,14.83
2022-12-31T15:24:26.555Z,15.30
2022-12-31T15:27:03.642Z,12.90
2022-12-31T15:29:54.100Z,13.77
2022-12-31T15:32:42.338Z,15.85
2022-12-31T15:35:25.674Z,14.03
2022-12-31T15:38:13.893Z,12.93
2022-12-31T15:40:49.588Z,14.13
2022-12-31T15:43:26.380Z,16.83
2022-12-31T15:46:05.298Z,15.80
2022-12-31T15:48:51.658Z,17.23
2022-12-31T15:51:30.860Z,15.48
2022-12-31T15:54:07.495Z,19.45
2022-12-31T15:56:50.292Z,14.50
2022-12-31T15:59:30.847Z,18.35
2022-12-31T16:02:03.786Z,15.63
2022-12-31T16:04:37.347Z,21.70
2022-12-31T16:07:07.534Z,23.48
2022-12-31T16:09:56.661Z,29.05
2022-12-31T16:12:34.359Z,29.13
2022-12-31T16:15:23.489Z,28.50
2022-12-31T16:18:06.224Z,29.17
2022-12-31T16:20:46.083Z,29.45
2022-12-31T16:23:25.507Z,27.17
2022-12-31T16:25:58.447Z,30.40
2022-12-31T16:28:48.353Z,28.30
2022-12-31T16:31:31.470Z,27.48
2022-12-31T16:34:13.821Z,28.35
2022-12-31T16:36:43.994Z,25.13
2022-12-31T16:39:33.186Z,25.48
2022-12-31T16:42:21.079Z,26.20
2022-12-31T16:45:08.815Z,26.10
2022-12-31T16:47:53.317Z,25.88
2022-12-31T16:50:29.534Z,23.45
2022-12-31T16:53:13.030Z,22.38
2022-12-31T16:56:14.299Z,25.83
2022-12-31T16:58:47.590Z,29.45
2022-12-31T17:01:19.938Z,27.80
2022-12-31T17:04:13.493Z,27.50
2022-12-31T17:06:49.295Z,24.08
2022-12-31T17:09:31.203Z,29.90
2022-12-31T17:12:19.078Z,31.60
2022-12-31T17:14:53.046Z,30.63
2022-12-31T17:17:29.123Z,30.92
2022-12-31T17:20:02.701Z,32.33
2022-12-31T17:22:49.499Z,30.77
2022-12-31T17:25:25.355Z,31.35
2022-12-31T17:27:59.137Z,28.35
2022-12-31T17:30:35.395Z,29.60
2022-12-31T17:33:27.161Z,30.27
2022-12-31T17:36:20.947Z,27.27
2022-12-31T17:39:22.675Z,31.48
2022-12-31T17:41:58.172Z,32.20
2022-12-31T17:44:39.315Z,33.80
2022-12-31T17:47:16.543Z,30.52
2022-12-31T17:49:48.744Z,30.97
2022-12-31T17:52:29.747Z,33.63
2022-12-31T17:55:00.638Z,30.30
2022-12-31T17:57:33.258Z,36.75
2022-12-31T18:02:50.460Z,26.47
2022-12-31T18:05:26.456Z,27.83
2022-12-31T18:08:04.641Z,27.77
2022-12-31T18:10:36.624Z,26.30
2022-12-31T18:13:07.099Z,24.35
2022-12-31T18:15:40.772Z,23.33
2022-12-31T18:18:31.717Z,25.42
2022-12-31T18:21:23.348Z,24.55
2022-12-31T18:26:34.427Z,26.67
2022-12-31T18:29:22.057Z,30.33
2022-12-31T18:31:51.587Z,32.95
2022-12-31T18:34:37.743Z,29.05
2022-12-31T18:37:21.280Z,28.92
2022-12-31T18:39:53.206Z,31.30
2022-12-31T18:42:34.215Z,31.40
2022-12-31T18:45:04.525Z,32.20
2022-12-31T18:47:37.969Z,31.40
2022-12-31T18:50:18.378Z,33.15
2022-12-31T18:53:08.906Z,38.42
2022-12-31T18:56:04.069Z,45.47
2022-12-31T18:58:43.246Z,45.50
2022-12-31T19:01:40.991Z,45.88
2022-12-31T19:04:27.877Z,45.75
2022-12-31T19:06:58.261Z,50.13
2022-12-31T19:09:51.491Z,47.63
2022-12-31T19:12:24.685Z,45.30
2022-12-31T19:14:55.995Z,50.85
2022-12-31T19:17:36.147Z,51.55
2022-12-31T19:20:12.581Z,47.28
2022-12-31T19:22:44.069Z,51.77
2022-12-31T19:25:20.875Z,51.58
2022-12-31T19:27:53.882Z,53.40
2022-12-31T19:43:57.713Z,47.38
2022-12-31T19:46:40.607Z,45.42
2022-12-31T19:49:26.511Z,50.30
2022-12-31T19:51:58.667Z,46.27
2022-12-31T19:54:34.956Z,40.80
2022-12-31T19:57:02.254Z,46.85
2022-12-31T19:59:41.087Z,37.55
2022-12-31T20:02:22.898Z,36.58
2022-12-31T20:04:52.417Z,32.70
2022-12-31T20:07:38.006Z,28.57
2022-12-31T20:10:08.634Z,28.90
2022-12-31T20:12:44.075Z,29.30
2022-12-31T20:15:17.275Z,24.40
2022-12-31T20:17:44.425Z,27.23
2022-12-31T20:20:19.357Z,25.30
2022-12-31T20:22:53.062Z,28.25
2022-12-31T20:25:26.606Z,35.03
2022-12-31T20:27:59.243Z,43.67
2022-12-31T20:30:29.083Z,43.30
2022-12-31T20:33:00.377Z,41.67
2022-12-31T20:35:33.208Z,45.15
2022-12-31T20:38:05.552Z,40.47
2022-12-31T20:40:35.318Z,34.80
2022-12-31T20:43:08.734Z,39.17
2022-12-31T20:45:42.769Z,35.40
2022-12-31T20:48:14.456Z,35.75
2022-12-31T20:50:45.528Z,35.53
2022-12-31T20:53:17.634Z,34.55
2022-12-31T20:56:18.652Z,37.30
2022-12-31T20:58:56.263Z,29.80
2022-12-31T21:01:41.799Z,29.33
2022-12-31T21:04:24.569Z,36.97
2022-12-31T21:07:03.044Z,44.03
2022-12-31T21:09:38.518Z,40.25
2022-12-31T21:12:24.535Z,38.67
2022-12-31T21:15:02.553Z,31.88
2022-12-31T21:17:32.516Z,31.70
2022-12-31T21:20:16.549Z,29.20
2022-12-31T21:22:46.084Z,25.20
2022-12-31T21:25:18.835Z,27.63
2022-12-31T21:28:01.372Z,24.85
2022-12-31T21:30:32.982Z,20.75
2022-12-31T21:33:06.626Z,21.63
2022-12-31T21:35:51.861Z,21.55
2022-12-31T21:38:23.358Z,24.33
2022-12-31T21:40:50.602Z,17.73
2022-12-31T21:43:39.164Z,16.65
2022-12-31T21:46:09.775Z,18.73
2022-12-31T21:48:44.089Z,16.20
2022-12-31T21:51:32.077Z,16.73
2022-12-31T21:54:07.777Z,15.90
2022-12-31T21:56:39.527Z,14.57
2022-12-31T21:59:30.926Z,16.73
2022-12-31T22:02:16.764Z,14.13
2022-12-31T22:05:17.312Z,13.87
2022-12-31T22:07:43.860Z,20.83
2022-12-31T22:10:28.020Z,21.10
2022-12-31T22:12:58.187Z,27.23
2022-12-31T22:15:37.814Z,27.95
2022-12-31T22:18:10.346Z,28.43
2022-12-31T22:20:46.037Z,32.60
2022-12-31T22:23:21.018Z,33.95
2022-12-31T22:25:54.440Z,35.65
2022-12-31T22:28:41.379Z,45.43
2022-12-31T22:31:25.436Z,37.43
2022-12-31T22:33:53.128Z,35.47
2022-12-31T22:36:27.101Z,32.03
2022-12-31T22:38:58.150Z,35.08
2022-12-31T22:41:27.916Z,36.92
2022-12-31T22:44:04.792Z,37.43
2022-12-31T22:46:37.310Z,35.13
2022-12-31T22:49:06.853Z,32.63
2022-12-31T22:51:56.708Z,36.90
2022-12-31T22:54:29.045Z,30.80
2022-12-31T22:57:03.098Z,31.23
2022-12-31T22:59:47.611Z,35.15
2022-12-31T23:02:22.581Z,30.33
2022-12-31T23:04:52.995Z,33.25
2022-12-31T23:07:43.586Z,45.07
2022-12-31T23:10:34.322Z,42.72
2022-12-31T23:13:23.140Z,36.97
2022-12-31T23:16:17.503Z,26.55
2022-12-31T23:19:06.505Z,30.80
2022-12-31T23:22:08.215Z,24.50
2022-12-31T23:24:38.383Z,23.73
2022-12-31T23:27:11.385Z,22.25
2022-12-31T23:29:47.151Z,28.20
2022-12-31T23:32:24.556Z,20.75
2022-12-31T23:34:56.487Z,20.30
2022-12-31T23:37:29.035Z,18.67
2022-12-31T23:39:58.681Z,16.90
2022-12-31T23:42:31.766Z,15.43
2022-12-31T23:45:05.135Z,13.38
2022-12-31T23:47:38.918Z,12.88
2022-12-31T23:50:06.672Z,10.10
2022-12-31T23:52:36.764Z,12.98
2022-12-31T23:55:12.575Z,12.85
2022-12-31T23:57:46.271Z,11.77
